createdAt,value
2023-04-15T00:00:46.433Z,16.67
2023-04-15T00:03:33.720Z,17.75
2023-04-15T00:06:18.908Z,18.05
2023-04-15T00:09:03.615Z,15.30
2023-04-15T00:11:49.823Z,17.50
2023-04-15T00:14:38.112Z,18.20
2023-04-15T00:17:22.628Z,18.70
2023-04-15T00:20:07.858Z,18.45
2023-04-15T00:22:52.976Z,17.25
2023-04-15T00:25:37.987Z,17.27
2023-04-15T00:28:22.849Z,22.50
2023-04-15T00:31:07.736Z,16.92
2023-04-15T00:33:52.658Z,16.83
2023-04-15T00:36:37.271Z,17.92
2023-04-15T00:39:22.129Z,19.20
2023-04-15T00:42:07.093Z,18.00
2023-04-15T00:44:52.014Z,18.83
2023-04-15T00:47:38.622Z,19.80
2023-04-15T00:50:23.484Z,20.23
2023-04-15T00:53:08.289Z,20.33
2023-04-15T00:55:53.623Z,20.02
2023-04-15T00:58:38.324Z,17.85
2023-04-15T01:01:24.357Z,17.88
2023-04-15T01:04:10.997Z,16.88
2023-04-15T01:06:55.742Z,21.83
2023-04-15T01:09:40.882Z,20.65
2023-04-15T01:12:26.906Z,16.23
2023-04-15T01:15:11.587Z,17.00
2023-04-15T01:20:41.799Z,17.80
2023-04-15T01:23:27.372Z,16.77
2023-04-15T01:26:12.925Z,19.35
2023-04-15T01:28:57.832Z,16.27
2023-04-15T01:31:53.189Z,18.02
2023-04-15T01:34:38.113Z,16.02
2023-04-15T01:37:23.647Z,16.40
2023-04-15T01:40:09.362Z,22.80
2023-04-15T01:42:54.074Z,16.90
2023-04-15T01:45:38.946Z,14.25
2023-04-15T01:48:23.772Z,16.25
2023-04-15T01:53:53.167Z,17.55
2023-04-15T01:56:38.291Z,17.45
2023-04-15T01:59:23.247Z,15.65
2023-04-15T02:02:45.858Z,18.27
2023-04-15T02:05:31.157Z,16.38
2023-04-15T02:08:16.622Z,17.10
2023-04-15T02:11:01.754Z,16.10
2023-04-15T02:13:46.685Z,15.95
2023-04-15T02:16:32.395Z,14.18
2023-04-15T02:19:17.738Z,16.13
2023-04-15T02:22:02.935Z,16.17
2023-04-15T02:24:48.339Z,12.20
2023-04-15T02:27:33.310Z,13.13
2023-04-15T02:30:18.382Z,12.20
2023-04-15T02:33:03.369Z,14.13
2023-04-15T02:35:48.419Z,12.13
2023-04-15T02:38:33.250Z,11.23
2023-04-15T02:41:20.884Z,12.73
2023-04-15T02:44:06.586Z,15.48
2023-04-15T02:46:53.070Z,13.13
2023-04-15T02:49:39.729Z,12.13
2023-04-15T02:52:24.737Z,11.20
2023-04-15T02:55:09.825Z,11.82
2023-04-15T02:57:55.369Z,12.43
2023-04-15T03:00:40.093Z,9.75
2023-04-15T03:03:26.260Z,9.48
2023-04-15T03:06:11.079Z,10.23
2023-04-15T03:08:56.383Z,11.18
2023-04-15T03:11:41.780Z,10.55
2023-04-15T03:14:27.745Z,9.30
2023-04-15T03:17:12.668Z,11.25
2023-04-15T03:19:57.823Z,9.90
2023-04-15T03:22:42.797Z,9.50
2023-04-15T03:25:27.896Z,10.25
2023-04-15T03:28:12.413Z,10.07
2023-04-15T03:30:57.897Z,10.10
2023-04-15T03:33:42.906Z,9.73
2023-04-15T03:36:31.504Z,10.70
2023-04-15T03:39:16.068Z,11.80
2023-04-15T03:42:01.376Z,10.80
2023-04-15T03:44:45.917Z,11.75
2023-04-15T03:47:31.501Z,10.15
2023-04-15T03:50:16.720Z,10.45
2023-04-15T03:53:01.526Z,11.48
2023-04-15T03:58:30.466Z,12.20
2023-04-15T04:01:15.951Z,7.95
2023-04-15T04:04:01.061Z,10.00
2023-04-15T04:06:46.011Z,9.68
2023-04-15T04:09:31.091Z,8.68
2023-04-15T04:12:15.991Z,9.23
2023-04-15T04:15:01.109Z,10.32
2023-04-15T04:17:45.810Z,9.05
2023-04-15T04:20:33.660Z,10.02
2023-04-15T04:23:18.520Z,9.68
2023-04-15T04:26:03.692Z,10.75
2023-04-15T04:28:48.615Z,11.90
2023-04-15T04:31:33.649Z,10.73
2023-04-15T04:34:18.573Z,12.23
2023-04-15T04:37:03.730Z,9.75
2023-04-15T04:39:48.364Z,10.48
2023-04-15T04:42:33.717Z,10.38
2023-04-15T04:45:19.128Z,9.00
2023-04-15T04:48:06.374Z,12.23
2023-04-15T04:50:51.629Z,10.07
2023-04-15T04:53:37.162Z,10.90
2023-04-15T04:56:21.741Z,8.65
2023-04-15T05:01:52.202Z,9.45
2023-04-15T05:04:37.246Z,9.65
2023-04-15T05:07:21.833Z,12.45
2023-04-15T05:10:06.902Z,12.85
2023-04-15T05:12:52.026Z,9.65
2023-04-15T05:15:39.110Z,9.93
2023-04-15T05:18:23.942Z,9.63
2023-04-15T05:21:09.385Z,9.05
2023-04-15T05:23:54.447Z,9.95
2023-04-15T05:26:39.360Z,10.23
2023-04-15T05:29:24.567Z,9.52
2023-04-15T05:32:09.416Z,9.55
2023-04-15T05:34:54.239Z,9.85
2023-04-15T05:37:39.244Z,9.88
2023-04-15T05:40:24.326Z,10.48
2023-04-15T05:43:09.163Z,9.20
2023-04-15T05:45:54.211Z,8.38
2023-04-15T05:48:39.158Z,8.02
2023-04-15T05:51:24.182Z,10.15
2023-04-15T05:54:09.071Z,8.27
2023-04-15T05:56:54.294Z,9.02
2023-04-15T05:59:39.025Z,9.57
2023-04-15T06:02:24.081Z,10.63
2023-04-15T06:05:10.207Z,8.98
2023-04-15T06:07:54.860Z,9.85
2023-04-15T06:10:40.206Z,9.68
2023-04-15T06:13:25.192Z,11.75
2023-04-15T06:16:09.985Z,9.07
2023-04-15T06:21:38.995Z,11.23
2023-04-15T06:24:24.039Z,9.98
2023-04-15T06:27:08.943Z,8.20
2023-04-15T06:29:53.991Z,9.05
2023-04-15T06:32:39.002Z,8.32
2023-04-15T06:35:23.946Z,8.40
2023-04-15T06:38:08.928Z,7.63
2023-04-15T06:40:53.801Z,9.35
2023-04-15T06:43:39.289Z,10.25
2023-04-15T06:46:23.679Z,7.82
2023-04-15T06:49:08.954Z,8.07
2023-04-15T06:51:53.690Z,10.75
2023-04-15T06:54:38.680Z,9.00
2023-04-15T06:57:23.209Z,10.02
2023-04-15T07:00:10.551Z,8.23
2023-04-15T07:02:55.946Z,7.75
2023-04-15T07:05:40.863Z,7.18
2023-04-15T07:08:25.874Z,7.75
2023-04-15T07:11:10.756Z,8.65
2023-04-15T07:13:57.056Z,8.00
2023-04-15T07:16:41.694Z,9.18
2023-04-15T07:19:26.572Z,7.55
2023-04-15T07:22:12.307Z,10.98
2023-04-15T07:24:57.133Z,9.18
2023-04-15T07:27:42.283Z,8.13
2023-04-15T07:30:28.269Z,7.97
2023-04-15T07:33:13.204Z,8.27
2023-04-15T07:35:58.177Z,7.75
2023-04-15T07:38:43.109Z,8.40
2023-04-15T07:41:28.481Z,9.85
2023-04-15T07:44:13.066Z,8.02
2023-04-15T07:46:58.055Z,9.27
2023-04-15T07:49:43.748Z,11.48
2023-04-15T07:52:28.308Z,10.93
2023-04-15T07:55:13.256Z,9.45
2023-04-15T07:57:58.238Z,9.00
2023-04-15T08:00:43.352Z,13.20
2023-04-15T08:03:28.408Z,10.05
2023-04-15T08:06:13.818Z,10.10
2023-04-15T08:08:59.594Z,10.60
2023-04-15T08:11:44.838Z,9.75
2023-04-15T08:14:30.336Z,12.77
2023-04-15T08:17:15.195Z,11.98
2023-04-15T08:20:00.406Z,17.20
2023-04-15T08:22:47.274Z,12.25
2023-04-15T08:25:31.963Z,11.65
2023-04-15T08:28:19.312Z,19.33
2023-04-15T08:31:04.043Z,22.23
2023-04-15T08:33:51.475Z,18.45
2023-04-15T08:36:36.320Z,16.70
2023-04-15T08:39:21.552Z,14.73
2023-04-15T08:42:15.884Z,12.30
2023-04-15T08:45:03.520Z,13.80
2023-04-15T08:47:55.778Z,12.60
2023-04-15T08:50:41.481Z,13.57
2023-04-15T08:53:29.110Z,14.10
2023-04-15T08:56:16.106Z,16.10
2023-04-15T08:59:01.894Z,20.00
2023-04-15T09:01:47.734Z,22.17
2023-04-15T09:04:33.357Z,30.30
2023-04-15T09:07:18.219Z,29.85
2023-04-15T09:10:04.271Z,26.95
2023-04-15T09:12:49.155Z,23.90
2023-04-15T09:15:37.781Z,21.85
2023-04-15T09:18:31.305Z,28.00
2023-04-15T09:21:17.200Z,20.30
2023-04-15T09:24:03.345Z,22.00
2023-04-15T09:26:52.255Z,17.75
2023-04-15T09:29:37.174Z,14.10
2023-04-15T09:32:24.309Z,14.52
2023-04-15T09:35:12.598Z,13.55
2023-04-15T09:38:06.671Z,16.27
2023-04-15T09:40:51.685Z,20.45
2023-04-15T09:43:38.835Z,15.10
2023-04-15T09:46:41.665Z,14.57
2023-04-15T09:49:26.863Z,14.10
2023-04-15T09:52:13.504Z,17.00
2023-04-15T09:54:59.581Z,13.63
2023-04-15T09:57:46.501Z,11.57
2023-04-15T10:00:32.460Z,13.77
2023-04-15T10:03:25.275Z,9.73
2023-04-15T10:06:10.781Z,13.05
2023-04-15T10:08:57.278Z,9.63
2023-04-15T10:11:42.515Z,10.18
2023-04-15T10:14:32.281Z,18.13
2023-04-15T10:17:19.709Z,19.38
2023-04-15T10:20:05.638Z,16.67
2023-04-15T10:22:51.804Z,14.13
2023-04-15T10:25:37.317Z,11.35
2023-04-15T10:28:22.411Z,9.80
2023-04-15T10:31:07.948Z,10.82
2023-04-15T10:33:53.003Z,10.68
2023-04-15T10:36:37.754Z,10.55
2023-04-15T10:39:37.588Z,11.93
2023-04-15T10:42:22.535Z,8.27
2023-04-15T10:45:17.261Z,10.55
2023-04-15T10:48:04.311Z,11.15
2023-04-15T10:51:01.864Z,10.93
2023-04-15T10:53:46.650Z,13.00
2023-04-15T10:56:31.738Z,14.77
2023-04-15T10:59:17.128Z,12.95
2023-04-15T11:02:04.238Z,15.20
2023-04-15T11:04:59.275Z,14.70
2023-04-15T11:07:44.211Z,19.55
2023-04-15T11:10:28.982Z,15.85
2023-04-15T11:13:21.221Z,15.40
2023-04-15T11:16:06.812Z,15.65
2023-04-15T11:18:55.598Z,15.50
2023-04-15T11:21:40.706Z,13.90
2023-04-15T11:24:28.068Z,16.77
2023-04-15T11:27:23.109Z,13.80
2023-04-15T11:30:28.418Z,16.00
2023-04-15T11:33:13.654Z,14.43
2023-04-15T11:35:58.499Z,11.30
2023-04-15T11:38:45.977Z,13.75
2023-04-15T11:41:31.214Z,10.55
2023-04-15T11:44:19.540Z,12.27
2023-04-15T11:47:22.430Z,14.52
2023-04-15T11:50:18.419Z,12.27
2023-04-15T11:53:08.173Z,12.30
2023-04-15T11:55:53.472Z,19.45
2023-04-15T11:58:38.897Z,14.05
2023-04-15T12:01:35.514Z,16.20
2023-04-15T12:04:25.094Z,12.45
2023-04-15T12:07:11.995Z,14.40
2023-04-15T12:09:57.318Z,14.40
2023-04-15T12:12:42.180Z,11.77
2023-04-15T12:15:27.287Z,11.05
2023-04-15T12:18:19.232Z,16.25
2023-04-15T12:21:10.149Z,19.35
2023-04-15T12:26:52.788Z,12.25
2023-04-15T12:29:39.248Z,11.27
2023-04-15T12:32:24.058Z,13.73
2023-04-15T12:35:09.105Z,11.80
2023-04-15T12:37:53.947Z,14.90
2023-04-15T12:40:39.007Z,13.13
2023-04-15T12:43:23.577Z,13.27
2023-04-15T12:46:09.581Z,12.93
2023-04-15T12:48:54.719Z,13.90
2023-04-15T12:51:40.332Z,16.48
2023-04-15T12:54:26.483Z,15.80
2023-04-15T12:57:11.751Z,16.05
2023-04-15T12:59:56.932Z,18.58
2023-04-15T13:02:44.151Z,17.40
2023-04-15T13:05:29.574Z,18.35
2023-04-15T13:08:15.005Z,15.70
2023-04-15T13:11:00.400Z,14.55
2023-04-15T13:13:45.072Z,16.30
2023-04-15T13:16:31.491Z,16.70
2023-04-15T13:19:16.619Z,18.08
2023-04-15T13:22:01.824Z,19.95
2023-04-15T13:24:46.804Z,18.67
2023-04-15T13:27:31.755Z,20.83
2023-04-15T13:30:16.760Z,22.50
2023-04-15T13:33:01.661Z,19.17
2023-04-15T13:35:46.568Z,20.42
2023-04-15T13:38:32.324Z,18.75
2023-04-15T13:41:17.720Z,19.25
2023-04-15T13:44:02.946Z,19.10
2023-04-15T13:46:48.141Z,21.33
2023-04-15T13:49:32.916Z,19.10
2023-04-15T13:52:17.886Z,16.42
2023-04-15T13:55:18.254Z,18.75
2023-04-15T13:58:04.951Z,18.55
2023-04-15T14:00:50.017Z,18.48
2023-04-15T14:03:35.847Z,19.42
2023-04-15T14:06:21.438Z,20.30
2023-04-15T14:09:06.425Z,19.77
2023-04-15T14:11:51.956Z,21.02
2023-04-15T14:14:36.927Z,21.42
2023-04-15T14:17:21.874Z,19.55
2023-04-15T14:20:07.935Z,19.85
2023-04-15T14:22:52.625Z,15.15
2023-04-15T14:25:38.688Z,15.50
2023-04-15T14:28:24.378Z,14.20
2023-04-15T14:31:09.269Z,18.25
2023-04-15T14:33:54.353Z,15.68
2023-04-15T14:36:40.343Z,17.83
2023-04-15T14:39:26.663Z,16.60
2023-04-15T14:42:11.157Z,14.18
2023-04-15T14:44:56.276Z,18.05
2023-04-15T14:47:41.390Z,18.92
2023-04-15T14:50:26.164Z,20.58
2023-04-15T14:53:11.151Z,18.05
2023-04-15T14:55:56.672Z,18.25
2023-04-15T14:58:41.729Z,18.58
2023-04-15T15:01:26.806Z,18.00
2023-04-15T15:04:12.409Z,16.02
2023-04-15T15:06:57.086Z,18.25
2023-04-15T15:09:42.097Z,19.73
2023-04-15T15:12:27.247Z,22.08
2023-04-15T15:15:25.076Z,22.98
2023-04-15T15:18:13.585Z,21.25
2023-04-15T15:20:58.612Z,25.83
2023-04-15T15:23:44.986Z,25.08
2023-04-15T15:26:29.551Z,23.60
2023-04-15T15:29:14.528Z,21.50
2023-04-15T15:31:59.333Z,20.48
2023-04-15T15:34:44.556Z,20.40
2023-04-15T15:37:30.096Z,20.83
2023-04-15T15:40:15.262Z,21.45
2023-04-15T15:42:59.713Z,19.85
2023-04-15T15:45:44.205Z,24.85
2023-04-15T15:48:29.135Z,20.95
2023-04-15T15:51:14.181Z,21.55
2023-04-15T15:53:58.556Z,20.55
2023-04-15T15:56:43.656Z,23.67
2023-04-15T15:59:28.490Z,20.48
2023-04-15T16:02:13.787Z,19.40
2023-04-15T16:04:58.568Z,24.20
2023-04-15T16:07:43.526Z,26.52
2023-04-15T16:10:28.432Z,25.80
2023-04-15T16:13:13.555Z,27.05
2023-04-15T16:15:58.571Z,26.30
2023-04-15T16:18:43.405Z,27.38
2023-04-15T16:21:28.513Z,28.55
2023-04-15T16:24:13.215Z,26.63
2023-04-15T16:26:58.676Z,28.90
2023-04-15T16:29:43.643Z,27.77
2023-04-15T16:32:28.376Z,26.83
2023-04-15T16:35:15.630Z,26.25
2023-04-15T16:38:00.028Z,27.58
2023-04-15T16:40:45.509Z,26.70
2023-04-15T16:43:30.101Z,21.02
2023-04-15T16:46:15.204Z,21.75
2023-04-15T16:49:00.782Z,26.52
2023-04-15T16:51:45.299Z,22.73
2023-04-15T16:54:30.467Z,23.98
2023-04-15T16:57:15.239Z,19.42
2023-04-15T17:00:00.292Z,19.83
2023-04-15T17:02:45.487Z,24.65
2023-04-15T17:05:30.843Z,17.60
2023-04-15T17:08:15.457Z,16.60
2023-04-15T17:11:00.340Z,20.67
2023-04-15T17:13:46.297Z,20.98
2023-04-15T17:16:31.171Z,18.45
2023-04-15T17:19:16.323Z,17.17
2023-04-15T17:22:01.658Z,20.45
2023-04-15T17:24:46.851Z,17.85
2023-04-15T17:27:31.749Z,16.40
2023-04-15T17:30:16.841Z,18.63
2023-04-15T17:33:02.023Z,17.10
2023-04-15T17:35:46.723Z,18.35
2023-04-15T17:38:31.837Z,18.42
2023-04-15T17:41:16.497Z,20.88
2023-04-15T17:44:01.540Z,19.20
2023-04-15T17:46:46.774Z,21.02
2023-04-15T17:49:33.443Z,17.75
2023-04-15T17:52:18.106Z,18.60
2023-04-15T17:55:03.339Z,18.73
2023-04-15T17:57:48.371Z,19.77
2023-04-15T18:00:33.254Z,21.58
2023-04-15T18:03:18.476Z,17.02
2023-04-15T18:06:03.441Z,16.35
2023-04-15T18:08:48.408Z,14.85
2023-04-15T18:11:33.198Z,14.55
2023-04-15T18:14:32.903Z,16.75
2023-04-15T18:17:19.759Z,14.77
2023-04-15T18:20:04.900Z,17.75
2023-04-15T18:22:50.793Z,16.88
2023-04-15T18:25:37.521Z,19.63
2023-04-15T18:28:22.415Z,16.33
2023-04-15T18:31:07.259Z,20.30
2023-04-15T18:33:52.287Z,18.58
2023-04-15T18:36:37.496Z,18.55
2023-04-15T18:39:22.568Z,19.63
2023-04-15T18:42:07.276Z,21.10
2023-04-15T18:44:53.156Z,22.42
2023-04-15T18:47:38.193Z,18.40
2023-04-15T18:50:23.180Z,16.00
2023-04-15T18:53:08.131Z,15.80
2023-04-15T18:55:53.327Z,16.98
2023-04-15T18:59:26.933Z,16.33
2023-04-15T19:01:43.105Z,21.23
2023-04-15T19:04:28.615Z,15.88
2023-04-15T19:07:14.372Z,15.35
2023-04-15T19:09:59.588Z,14.38
2023-04-15T19:12:44.287Z,17.42
2023-04-15T19:15:29.684Z,16.80
2023-04-15T19:18:15.173Z,14.38
2023-04-15T19:21:00.022Z,14.02
2023-04-15T19:23:46.836Z,15.40
2023-04-15T19:26:31.346Z,13.77
2023-04-15T19:29:16.994Z,13.45
2023-04-15T19:32:01.784Z,15.40
2023-04-15T19:34:47.639Z,14.88
2023-04-15T19:37:32.588Z,14.88
2023-04-15T19:40:17.666Z,15.38
2023-04-15T19:43:02.675Z,15.50
2023-04-15T19:45:51.333Z,11.80
2023-04-15T19:48:36.243Z,14.90
2023-04-15T19:51:21.405Z,13.25
2023-04-15T19:54:06.055Z,12.77
2023-04-15T19:56:51.130Z,13.50
2023-04-15T19:59:37.124Z,12.55
2023-04-15T20:02:22.052Z,14.02
2023-04-15T20:05:09.184Z,13.95
2023-04-15T20:07:53.906Z,13.23
2023-04-15T20:10:38.753Z,14.38
2023-04-15T20:13:23.550Z,13.23
2023-04-15T20:16:09.013Z,13.50
2023-04-15T20:18:54.081Z,17.42
2023-04-15T20:21:39.197Z,18.15
2023-04-15T20:24:24.094Z,16.08
2023-04-15T20:27:09.132Z,15.13
2023-04-15T20:29:54.380Z,15.93
2023-04-15T20:32:39.059Z,15.52
2023-04-15T20:35:27.475Z,15.07
2023-04-15T20:38:14.737Z,15.15
2023-04-15T20:40:59.669Z,17.70
2023-04-15T20:43:44.790Z,17.10
2023-04-15T20:46:30.403Z,16.33
2023-04-15T20:49:17.621Z,17.48
2023-04-15T20:52:03.249Z,14.07
2023-04-15T20:54:47.801Z,17.73
2023-04-15T20:57:32.902Z,14.77
2023-04-15T21:00:17.733Z,18.52
2023-04-15T21:03:03.431Z,16.95
2023-04-15T21:05:48.199Z,16.45
2023-04-15T21:08:33.116Z,19.80
2023-04-15T21:11:36.568Z,16.60
2023-04-15T21:14:23.395Z,21.98
2023-04-15T21:17:10.860Z,18.27
2023-04-15T21:19:55.965Z,15.93
2023-04-15T21:22:40.931Z,16.30
2023-04-15T21:25:25.727Z,17.25
2023-04-15T21:28:10.641Z,17.20
2023-04-15T21:33:40.543Z,16.27
2023-04-15T21:36:26.321Z,17.08
2023-04-15T21:39:11.261Z,16.00
2023-04-15T21:41:57.283Z,14.25
2023-04-15T21:44:41.815Z,15.05
2023-04-15T21:47:26.325Z,16.52
2023-04-15T21:50:11.383Z,15.13
2023-04-15T21:52:56.189Z,14.38
2023-04-15T21:55:40.596Z,15.48
2023-04-15T21:58:25.824Z,15.38
2023-04-15T22:01:11.006Z,15.05
2023-04-15T22:03:55.796Z,13.88
2023-04-15T22:06:40.526Z,14.35
2023-04-15T22:09:25.732Z,13.48
2023-04-15T22:12:10.850Z,14.00
2023-04-15T22:14:55.895Z,13.63
2023-04-15T22:17:41.022Z,15.32
2023-04-15T22:20:26.013Z,15.15
2023-04-15T22:23:10.882Z,14.85
2023-04-15T22:25:56.031Z,16.08
2023-04-15T22:28:41.263Z,13.43
2023-04-15T22:31:25.916Z,15.23
2023-04-15T22:34:11.073Z,12.98
2023-04-15T22:36:55.796Z,11.02
2023-04-15T22:39:40.779Z,16.05
2023-04-15T22:42:25.777Z,12.60
2023-04-15T22:45:10.938Z,13.75
2023-04-15T22:47:55.823Z,11.65
2023-04-15T22:50:40.893Z,13.27
2023-04-15T22:53:25.802Z,12.05
2023-04-15T22:56:10.552Z,11.20
2023-04-15T22:58:55.409Z,13.10
2023-04-15T23:01:40.483Z,14.25
2023-04-15T23:04:27.838Z,12.40
2023-04-15T23:07:13.358Z,13.00
2023-04-15T23:10:00.507Z,13.32
2023-04-15T23:12:46.184Z,12.52
2023-04-15T23:15:31.215Z,14.20
2023-04-15T23:18:15.627Z,12.18
2023-04-15T23:21:02.387Z,12.32
2023-04-15T23:23:47.234Z,11.57
2023-04-15T23:26:32.352Z,13.50
2023-04-15T23:29:17.273Z,14.40
2023-04-15T23:32:01.919Z,14.48
2023-04-15T23:34:47.048Z,14.13
2023-04-15T23:37:31.968Z,14.55
2023-04-15T23:40:17.220Z,13.63
2023-04-15T23:43:01.875Z,14.10
2023-04-15T23:45:46.717Z,14.50
2023-04-15T23:48:32.067Z,13.07
2023-04-15T23:51:16.653Z,12.30
2023-04-15T23:54:01.633Z,16.13
2023-04-15T23:56:46.452Z,15.50
2023-04-15T23:59:31.331Z,14.52
